Time;durP1;ratioP1;P1;durP2;ratioP2;P2;SDS_P1;SDS_P2;PMS_P1;PMS_P2;Temp;Humidity;BMP_temperature;BMP_pressure;BME280_temperature;BME280_humidity;BME280_pressure;Samples;Min_cycle;Max_cycle;Signal;HPM_P1;HPM_P2
2021/12/03 00:00:35;;;;;;;5.87;3.73;;;;;;;;;;5062216;28;20619;-50
2021/12/03 00:03:01;;;;;;;6.80;3.30;;;;;;;;;;5057574;28;20414;-47
2021/12/03 00:05:28;;;;;;;5.40;3.40;;;;;;;;;;5060756;28;20513;-49
2021/12/03 00:07:53;;;;;;;4.93;3.17;;;;;;;;;;5072493;28;20422;-48
2021/12/03 00:10:23;;;;;;;3.23;2.60;;;;;;;;;;5059230;28;20426;-50
2021/12/03 00:12:49;;;;;;;8.03;5.10;;;;;;;;;;5040794;28;20449;-47
2021/12/03 00:15:15;;;;;;;6.00;4.10;;;;;;;;;;5068975;28;20445;-47
2021/12/03 00:17:41;;;;;;;7.83;4.30;;;;;;;;;;5043840;28;20512;-49
2021/12/03 00:20:08;;;;;;;6.90;3.13;;;;;;;;;;5062957;28;20515;-48
2021/12/03 00:22:41;;;;;;;6.57;4.10;;;;;;;;;;5067402;28;20430;-50
2021/12/03 00:25:07;;;;;;;8.37;4.53;;;;;;;;;;5065915;28;20437;-48
2021/12/03 00:27:49;;;;;;;4.43;3.30;;;;;;;;;;5061298;28;20460;-48
2021/12/03 00:30:19;;;;;;;5.63;3.40;;;;;;;;;;5068986;28;21037;-49
2021/12/03 00:32:45;;;;;;;6.37;3.50;;;;;;;;;;5064994;28;20436;-48
2021/12/03 00:35:11;;;;;;;8.50;4.07;;;;;;;;;;5067054;28;21102;-48
2021/12/03 00:37:44;;;;;;;5.97;3.90;;;;;;;;;;5062065;28;20497;-49
2021/12/03 00:40:14;;;;;;;7.00;4.20;;;;;;;;;;5074244;28;20448;-47
2021/12/03 00:42:50;;;;;;;7.47;4.00;;;;;;;;;;5056760;28;20429;-49
2021/12/03 00:45:18;;;;;;;5.20;4.37;;;;;;;;;;5061538;28;20449;-49
2021/12/03 00:47:44;;;;;;;4.90;3.70;;;;;;;;;;5034466;28;20929;-48
2021/12/03 00:50:10;;;;;;;5.23;4.27;;;;;;;;;;5062096;28;20444;-49
2021/12/03 00:52:46;;;;;;;5.40;3.80;;;;;;;;;;5060897;28;20986;-50
2021/12/03 00:55:15;;;;;;;4.23;3.47;;;;;;;;;;5065237;28;20532;-48
2021/12/03 00:57:59;;;;;;;6.73;5.57;;;;;;;;;;5034867;28;20468;-50
2021/12/03 01:00:31;;;;;;;6.97;4.70;;;;;;;;;;5079990;28;20464;-48
2021/12/03 01:02:58;;;;;;;5.07;3.83;;;;;;;;;;5059975;28;20425;-49
2021/12/03 01:05:25;;;;;;;5.03;4.07;;;;;;;;;;5066613;28;20990;-49
2021/12/03 01:07:51;;;;;;;10.13;4.87;;;;;;;;;;5069163;28;20425;-49
2021/12/03 01:10:17;;;;;;;8.67;5.13;;;;;;;;;;5067349;28;20541;-47
2021/12/03 01:12:43;;;;;;;8.30;4.50;;;;;;;;;;5063947;28;20524;-48
2021/12/03 01:15:10;;;;;;;7.80;4.57;;;;;;;;;;5065834;28;20440;-48
2021/12/03 01:17:36;;;;;;;6.40;5.07;;;;;;;;;;5054823;28;20449;-47
2021/12/03 01:20:06;;;;;;;9.80;4.83;;;;;;;;;;5060887;28;20444;-47
2021/12/03 01:22:36;;;;;;;6.50;4.70;;;;;;;;;;5062478;28;20540;-49
2021/12/03 01:25:03;;;;;;;5.13;4.63;;;;;;;;;;5067548;28;20449;-49
2021/12/03 01:27:37;;;;;;;6.03;5.10;;;;;;;;;;5046925;28;20469;-50
2021/12/03 01:30:28;;;;;;;6.17;4.90;;;;;;;;;;5068575;28;20430;-49
2021/12/03 01:32:56;;;;;;;6.20;5.30;;;;;;;;;;5024181;28;20981;-49
2021/12/03 01:35:22;;;;;;;8.33;5.00;;;;;;;;;;5060860;28;20903;-49
2021/12/03 01:37:51;;;;;;;7.53;4.73;;;;;;;;;;5049408;28;20568;-49
2021/12/03 01:40:19;;;;;;;7.20;5.13;;;;;;;;;;5065472;28;20445;-50
2021/12/03 01:42:45;;;;;;;7.13;4.70;;;;;;;;;;5062546;28;20548;-48
2021/12/03 01:45:15;;;;;;;13.87;4.60;;;;;;;;;;5065660;28;20548;-48
2021/12/03 01:47:46;;;;;;;6.10;4.40;;;;;;;;;;5064578;28;20798;-49
2021/12/03 01:50:12;;;;;;;7.17;5.50;;;;;;;;;;5062288;28;21062;-49
2021/12/03 01:52:38;;;;;;;11.33;5.90;;;;;;;;;;5066771;28;20454;-47
2021/12/03 01:55:12;;;;;;;7.83;5.13;;;;;;;;;;5063167;28;20450;-50
2021/12/03 01:57:39;;;;;;;7.60;5.40;;;;;;;;;;5057011;28;20441;-49
2021/12/03 02:00:06;;;;;;;12.73;4.70;;;;;;;;;;5061922;28;20444;-49
2021/12/03 02:02:33;;;;;;;11.93;6.07;;;;;;;;;;5057320;28;20943;-49
2021/12/03 02:04:59;;;;;;;10.03;6.33;;;;;;;;;;5046918;28;20445;-49
2021/12/03 02:07:25;;;;;;;6.23;5.47;;;;;;;;;;5066925;28;20482;-48
2021/12/03 02:09:51;;;;;;;8.53;5.50;;;;;;;;;;5064515;28;20433;-48
2021/12/03 02:12:18;;;;;;;9.53;4.80;;;;;;;;;;5057504;28;20586;-49
2021/12/03 02:14:45;;;;;;;11.53;6.10;;;;;;;;;;5063418;28;20433;-50
2021/12/03 02:17:10;;;;;;;7.37;5.33;;;;;;;;;;5042433;28;21264;-48
2021/12/03 02:19:36;;;;;;;7.53;5.13;;;;;;;;;;5064808;28;20480;-47
2021/12/03 02:22:02;;;;;;;5.60;4.77;;;;;;;;;;5038937;28;20458;-47
2021/12/03 02:24:29;;;;;;;9.27;5.00;;;;;;;;;;5064976;28;20446;-49
2021/12/03 02:26:55;;;;;;;8.50;4.87;;;;;;;;;;5039970;28;20437;-47
2021/12/03 02:29:21;;;;;;;9.53;5.63;;;;;;;;;;5061695;28;20440;-48
2021/12/03 02:31:47;;;;;;;8.23;4.20;;;;;;;;;;5055810;28;20429;-48
2021/12/03 02:34:19;;;;;;;7.70;5.40;;;;;;;;;;5061500;28;20484;-49
2021/12/03 02:36:45;;;;;;;6.40;5.07;;;;;;;;;;5032263;28;20432;-48
2021/12/03 02:39:11;;;;;;;6.93;4.73;;;;;;;;;;5060737;28;20581;-49
2021/12/03 02:41:38;;;;;;;10.13;5.13;;;;;;;;;;5059823;28;21133;-49
2021/12/03 02:44:05;;;;;;;7.27;5.20;;;;;;;;;;5065464;28;20497;-49
2021/12/03 02:46:43;;;;;;;6.70;4.97;;;;;;;;;;5051009;28;20489;-49
2021/12/03 02:49:17;;;;;;;8.10;5.23;;;;;;;;;;5063476;28;20564;-49
2021/12/03 02:51:43;;;;;;;7.23;5.10;;;;;;;;;;5061962;28;20433;-49
2021/12/03 02:54:12;;;;;;;6.10;4.60;;;;;;;;;;5063434;28;20469;-49
2021/12/03 02:56:51;;;;;;;6.60;4.83;;;;;;;;;;5066337;28;20503;-50
2021/12/03 02:59:21;;;;;;;11.47;5.93;;;;;;;;;;5061786;28;21183;-48
2021/12/03 03:01:47;;;;;;;5.33;4.60;;;;;;;;;;5060163;28;20423;-48
2021/12/03 03:04:13;;;;;;;20.30;6.13;;;;;;;;;;5060530;28;20497;-48
2021/12/03 03:06:51;;;;;;;6.30;4.97;;;;;;;;;;5044804;28;20548;-49
2021/12/03 03:09:18;;;;;;;6.73;4.50;;;;;;;;;;5079858;28;20537;-48
2021/12/03 03:11:44;;;;;;;10.23;4.63;;;;;;;;;;5058358;28;20457;-47
2021/12/03 03:14:10;;;;;;;5.60;4.70;;;;;;;;;;5061622;28;20446;-48
2021/12/03 03:16:36;;;;;;;6.70;4.13;;;;;;;;;;5040242;28;21604;-47
2021/12/03 03:19:15;;;;;;;10.70;5.30;;;;;;;;;;5060578;28;20556;-48
2021/12/03 03:21:41;;;;;;;9.57;5.70;;;;;;;;;;5049907;28;20442;-47
2021/12/03 03:24:09;;;;;;;6.60;4.87;;;;;;;;;;5058255;28;20799;-48
2021/12/03 03:26:36;;;;;;;7.43;4.37;;;;;;;;;;5040065;28;20435;-48
2021/12/03 03:29:02;;;;;;;6.63;5.07;;;;;;;;;;5047284;28;20529;-48
2021/12/03 03:31:28;;;;;;;7.33;5.43;;;;;;;;;;5057427;28;23005;-47
2021/12/03 03:33:54;;;;;;;8.77;5.73;;;;;;;;;;5041200;28;20532;-47
2021/12/03 03:36:28;;;;;;;7.30;5.40;;;;;;;;;;5058150;28;20429;-50
2021/12/03 03:38:56;;;;;;;6.43;5.80;;;;;;;;;;5031830;28;20485;-49
2021/12/03 03:41:22;;;;;;;8.80;5.50;;;;;;;;;;5061269;28;20442;-47
2021/12/03 03:43:49;;;;;;;8.17;6.60;;;;;;;;;;5060491;28;20615;-48
2021/12/03 03:46:20;;;;;;;6.17;4.93;;;;;;;;;;5059781;28;20528;-49
2021/12/03 03:48:50;;;;;;;6.27;4.30;;;;;;;;;;5041667;28;20457;-49
2021/12/03 03:51:16;;;;;;;7.23;5.00;;;;;;;;;;5062602;28;20442;-49
2021/12/03 03:53:45;;;;;;;8.07;4.90;;;;;;;;;;5058147;28;20445;-49
2021/12/03 03:56:11;;;;;;;9.33;5.13;;;;;;;;;;5065447;28;20437;-49
2021/12/03 03:58:38;;;;;;;6.60;4.43;;;;;;;;;;5056956;28;20469;-48
2021/12/03 04:01:05;;;;;;;8.57;5.30;;;;;;;;;;5064537;28;21114;-49
2021/12/03 04:03:31;;;;;;;8.03;6.00;;;;;;;;;;5047608;28;20731;-49
2021/12/03 04:05:58;;;;;;;7.83;5.33;;;;;;;;;;5066355;28;20483;-49
2021/12/03 04:08:24;;;;;;;13.80;4.70;;;;;;;;;;5046193;28;20502;-49
2021/12/03 04:10:52;;;;;;;8.30;5.23;;;;;;;;;;5063083;28;20966;-50
2021/12/03 04:13:18;;;;;;;9.63;5.60;;;;;;;;;;5051821;28;20437;-48
2021/12/03 04:15:44;;;;;;;9.10;5.87;;;;;;;;;;5058764;28;20786;-48
2021/12/03 04:18:10;;;;;;;8.70;6.07;;;;;;;;;;5052415;28;20469;-49
2021/12/03 04:20:44;;;;;;;12.00;5.60;;;;;;;;;;5059360;28;20433;-49
2021/12/03 04:23:16;;;;;;;8.77;5.47;;;;;;;;;;5042106;28;20445;-50
2021/12/03 04:25:42;;;;;;;6.47;4.80;;;;;;;;;;5063885;28;20511;-47
2021/12/03 04:28:17;;;;;;;5.63;4.87;;;;;;;;;;5045781;28;20445;-49
2021/12/03 04:30:44;;;;;;;7.10;4.60;;;;;;;;;;5076757;28;20441;-49
2021/12/03 04:33:12;;;;;;;8.07;5.40;;;;;;;;;;5071713;28;20452;-49
2021/12/03 04:35:41;;;;;;;8.20;5.60;;;;;;;;;;5072816;28;20430;-49
2021/12/03 04:38:07;;;;;;;7.53;6.00;;;;;;;;;;5047072;28;21461;-48
2021/12/03 04:40:34;;;;;;;6.93;5.67;;;;;;;;;;5061104;28;20445;-46
2021/12/03 04:43:04;;;;;;;12.93;5.97;;;;;;;;;;5055839;28;20430;-49
2021/12/03 04:45:30;;;;;;;5.73;4.43;;;;;;;;;;5059554;28;20486;-49
2021/12/03 04:47:57;;;;;;;10.10;6.17;;;;;;;;;;5062267;28;21015;-50
2021/12/03 04:50:24;;;;;;;7.00;5.50;;;;;;;;;;5059412;28;21137;-52
2021/12/03 04:52:50;;;;;;;6.63;5.80;;;;;;;;;;5058999;28;20426;-47
2021/12/03 04:55:16;;;;;;;9.60;5.97;;;;;;;;;;5064232;28;20457;-49
2021/12/03 04:57:42;;;;;;;7.60;5.60;;;;;;;;;;5038533;28;21272;-48
2021/12/03 05:00:10;;;;;;;8.43;5.30;;;;;;;;;;5059875;28;20476;-48
2021/12/03 05:02:37;;;;;;;8.83;5.73;;;;;;;;;;5060327;28;20422;-49
2021/12/03 05:05:04;;;;;;;12.37;6.60;;;;;;;;;;5060414;28;20489;-47
2021/12/03 05:10:13;;;;;;;7.83;4.90;;;;;;;;;;5066755;28;20415;-50
2021/12/03 05:12:39;;;;;;;6.13;5.53;;;;;;;;;;5043818;28;20531;-48
2021/12/03 05:15:18;;;;;;;6.20;5.60;;;;;;;;;;5061467;28;20456;-50
2021/12/03 05:17:44;;;;;;;7.80;5.77;;;;;;;;;;5046667;28;20464;-48
2021/12/03 05:20:10;;;;;;;7.87;5.87;;;;;;;;;;5064493;28;20529;-49
2021/12/03 05:22:36;;;;;;;9.00;5.27;;;;;;;;;;5062685;28;20441;-47
2021/12/03 05:25:02;;;;;;;7.90;5.60;;;;;;;;;;5059336;28;20495;-49
2021/12/03 05:27:29;;;;;;;7.20;5.33;;;;;;;;;;5053693;28;20438;-47
2021/12/03 05:29:55;;;;;;;8.70;5.17;;;;;;;;;;5037797;28;20583;-50
2021/12/03 05:32:21;;;;;;;5.77;5.17;;;;;;;;;;5056425;28;20461;-48
2021/12/03 05:34:56;;;;;;;8.10;6.00;;;;;;;;;;5061252;28;21521;-49
2021/12/03 05:37:23;;;;;;;6.40;4.53;;;;;;;;;;5045956;28;20527;-48
2021/12/03 05:39:50;;;;;;;6.47;5.07;;;;;;;;;;5060152;28;20596;-48
2021/12/03 05:42:16;;;;;;;9.83;5.20;;;;;;;;;;5047840;28;21147;-48
2021/12/03 05:44:43;;;;;;;9.10;6.27;;;;;;;;;;5056913;28;21217;-47
2021/12/03 05:47:10;;;;;;;10.03;5.53;;;;;;;;;;5037430;28;20511;-48
2021/12/03 05:49:37;;;;;;;7.23;6.27;;;;;;;;;;5065050;28;22663;-48
2021/12/03 05:52:03;;;;;;;6.97;5.47;;;;;;;;;;5041541;28;21322;-47
2021/12/03 05:54:29;;;;;;;11.53;7.53;;;;;;;;;;5062987;28;20442;-49
2021/12/03 05:56:55;;;;;;;9.20;5.87;;;;;;;;;;5034939;28;20910;-45
2021/12/03 05:59:21;;;;;;;9.83;6.93;;;;;;;;;;5062626;28;20911;-45
2021/12/03 06:01:47;;;;;;;10.73;8.00;;;;;;;;;;5062898;28;20437;-48
2021/12/03 06:04:18;;;;;;;7.93;6.73;;;;;;;;;;5065067;28;20452;-48
2021/12/03 06:06:44;;;;;;;8.73;6.83;;;;;;;;;;5048911;28;20958;-46
2021/12/03 06:09:10;;;;;;;8.23;6.43;;;;;;;;;;5064377;28;20444;-47
2021/12/03 06:11:36;;;;;;;9.53;5.60;;;;;;;;;;5040871;28;20454;-46
2021/12/03 06:14:20;;;;;;;9.13;6.50;;;;;;;;;;5064455;28;20496;-48
2021/12/03 06:16:47;;;;;;;8.67;5.37;;;;;;;;;;5054497;28;21025;-46
2021/12/03 06:19:13;;;;;;;8.20;5.20;;;;;;;;;;5064084;28;20509;-46
2021/12/03 06:21:39;;;;;;;7.77;6.07;;;;;;;;;;5044904;28;20524;-47
2021/12/03 06:24:05;;;;;;;11.17;7.00;;;;;;;;;;5062202;28;20433;-47
2021/12/03 06:26:31;;;;;;;7.43;5.53;;;;;;;;;;5048393;28;20433;-47
2021/12/03 06:28:57;;;;;;;10.73;5.77;;;;;;;;;;5066523;28;20557;-46
2021/12/03 06:31:23;;;;;;;8.47;6.10;;;;;;;;;;5057611;28;20560;-48
2021/12/03 06:33:50;;;;;;;7.80;5.17;;;;;;;;;;5059932;28;20771;-47
2021/12/03 06:36:20;;;;;;;7.57;6.20;;;;;;;;;;5058198;28;20473;-49
2021/12/03 06:38:46;;;;;;;7.67;5.50;;;;;;;;;;5064428;28;20470;-46
2021/12/03 06:41:12;;;;;;;6.27;4.83;;;;;;;;;;5078135;28;20436;-49
2021/12/03 06:43:38;;;;;;;9.10;6.33;;;;;;;;;;5061015;28;20444;-49
2021/12/03 06:46:04;;;;;;;12.63;6.10;;;;;;;;;;5037653;28;23235;-48
2021/12/03 06:48:31;;;;;;;6.77;5.47;;;;;;;;;;5067507;28;20575;-48
2021/12/03 06:51:13;;;;;;;9.40;5.80;;;;;;;;;;5041683;28;20437;-48
2021/12/03 06:53:46;;;;;;;12.00;6.20;;;;;;;;;;5074882;28;20599;-46
2021/12/03 06:56:21;;;;;;;10.00;5.33;;;;;;;;;;5054157;28;20443;-46
2021/12/03 06:58:47;;;;;;;10.40;6.93;;;;;;;;;;5062104;28;20626;-45
2021/12/03 07:01:16;;;;;;;10.80;6.00;;;;;;;;;;5060020;28;20644;-47
2021/12/03 07:03:42;;;;;;;9.20;6.40;;;;;;;;;;5061267;28;20465;-45
2021/12/03 07:06:08;;;;;;;8.33;6.10;;;;;;;;;;5037719;28;20438;-48
2021/12/03 07:08:35;;;;;;;9.03;5.43;;;;;;;;;;5066394;28;20441;-45
2021/12/03 07:11:03;;;;;;;7.70;5.03;;;;;;;;;;5046005;28;20976;-49
2021/12/03 07:13:30;;;;;;;10.20;6.33;;;;;;;;;;5065873;28;20520;-48
2021/12/03 07:16:05;;;;;;;9.47;6.20;;;;;;;;;;5041318;28;20446;-48
2021/12/03 07:18:34;;;;;;;9.10;4.67;;;;;;;;;;5061769;28;21189;-47
2021/12/03 07:21:10;;;;;;;7.47;5.43;;;;;;;;;;5023062;28;20745;-48
2021/12/03 07:23:37;;;;;;;11.23;5.50;;;;;;;;;;5061128;28;20464;-50
2021/12/03 07:26:03;;;;;;;9.57;5.83;;;;;;;;;;5061167;28;20673;-47
2021/12/03 07:28:32;;;;;;;5.97;4.10;;;;;;;;;;5064632;28;20986;-47
2021/12/03 07:30:58;;;;;;;7.70;5.67;;;;;;;;;;5061867;28;20438;-48
2021/12/03 07:33:24;;;;;;;7.23;5.50;;;;;;;;;;5059953;28;20909;-47
2021/12/03 07:35:50;;;;;;;6.47;5.07;;;;;;;;;;5042038;28;23524;-49
2021/12/03 07:38:17;;;;;;;8.90;5.10;;;;;;;;;;5058903;28;20481;-49
2021/12/03 07:40:51;;;;;;;7.90;4.83;;;;;;;;;;5058636;28;20425;-49
2021/12/03 07:43:18;;;;;;;9.13;6.00;;;;;;;;;;5060606;28;20525;-49
2021/12/03 07:45:53;;;;;;;7.73;6.13;;;;;;;;;;5039912;28;20467;-49
2021/12/03 07:48:22;;;;;;;8.57;5.97;;;;;;;;;;5039406;28;20557;-46
2021/12/03 07:50:54;;;;;;;9.43;5.83;;;;;;;;;;5016247;28;20519;-49
2021/12/03 07:53:20;;;;;;;9.33;6.20;;;;;;;;;;5062039;28;20884;-47
2021/12/03 07:56:19;;;;;;;8.10;5.20;;;;;;;;;;5021724;28;21127;-49
2021/12/03 07:58:48;;;;;;;10.43;7.03;;;;;;;;;;5048862;28;20477;-49
2021/12/03 08:01:14;;;;;;;9.97;6.57;;;;;;;;;;5066931;28;20439;-50
2021/12/03 08:03:40;;;;;;;8.53;6.40;;;;;;;;;;5040591;28;20563;-50
2021/12/03 08:06:09;;;;;;;7.60;6.30;;;;;;;;;;5058888;28;20437;-48
2021/12/03 08:08:38;;;;;;;10.03;6.17;;;;;;;;;;5056863;28;20469;-48
2021/12/03 08:11:04;;;;;;;9.33;6.60;;;;;;;;;;5054702;28;20655;-46
2021/12/03 08:13:30;;;;;;;12.27;6.60;;;;;;;;;;5036720;28;20438;-49
2021/12/03 08:15:57;;;;;;;38.43;7.13;;;;;;;;;;5065276;28;21106;-49
2021/12/03 08:18:23;;;;;;;12.37;6.53;;;;;;;;;;5008432;28;21067;-47
2021/12/03 08:20:49;;;;;;;10.60;6.47;;;;;;;;;;5059136;28;20540;-47
2021/12/03 08:23:15;;;;;;;9.37;5.73;;;;;;;;;;5031234;28;20488;-49
2021/12/03 08:25:41;;;;;;;7.80;6.70;;;;;;;;;;5061672;28;20434;-48
2021/12/03 08:28:21;;;;;;;9.37;6.00;;;;;;;;;;5023831;28;20484;-47
2021/12/03 08:30:47;;;;;;;9.83;6.90;;;;;;;;;;5056652;28;20425;-48
2021/12/03 08:33:20;;;;;;;10.60;7.70;;;;;;;;;;5053033;28;20793;-48
2021/12/03 08:35:46;;;;;;;10.33;6.87;;;;;;;;;;5063096;28;20479;-52
2021/12/03 08:38:12;;;;;;;8.20;5.87;;;;;;;;;;5076148;28;20701;-47
2021/12/03 08:40:38;;;;;;;8.10;6.53;;;;;;;;;;5063912;28;20442;-47
2021/12/03 08:43:04;;;;;;;9.57;6.43;;;;;;;;;;5044821;28;20910;-46
2021/12/03 08:45:30;;;;;;;10.10;6.40;;;;;;;;;;5065974;28;20532;-47
2021/12/03 08:47:59;;;;;;;7.87;5.37;;;;;;;;;;5060173;28;20453;-51
2021/12/03 08:50:29;;;;;;;7.70;5.10;;;;;;;;;;5066562;28;20945;-48
2021/12/03 08:55:33;;;;;;;6.60;5.73;;;;;;;;;;5063133;28;20426;-47
2021/12/03 08:57:59;;;;;;;7.90;4.77;;;;;;;;;;5039605;28;20518;-47
2021/12/03 09:00:25;;;;;;;6.27;4.20;;;;;;;;;;5060106;28;20495;-51
2021/12/03 09:02:51;;;;;;;7.70;4.80;;;;;;;;;;5015140;28;20548;-49
2021/12/03 09:05:17;;;;;;;5.97;4.17;;;;;;;;;;5073067;28;20469;-49
2021/12/03 09:07:43;;;;;;;6.63;4.40;;;;;;;;;;5022609;28;20724;-47
2021/12/03 09:10:11;;;;;;;6.23;4.03;;;;;;;;;;5058799;28;20778;-47
2021/12/03 09:12:38;;;;;;;25.23;6.60;;;;;;;;;;5042345;28;20820;-47
2021/12/03 09:15:11;;;;;;;4.60;4.10;;;;;;;;;;5063136;28;20442;-47
2021/12/03 09:20:27;;;;;;;3.40;2.77;;;;;;;;;;5067097;28;20468;-48
2021/12/03 09:23:00;;;;;;;3.13;2.67;;;;;;;;;;5046985;28;20441;-48
2021/12/03 09:25:40;;;;;;;11.33;3.10;;;;;;;;;;5063520;28;20456;-48
2021/12/03 09:28:08;;;;;;;5.30;2.40;;;;;;;;;;5074733;28;20444;-48
2021/12/03 09:30:39;;;;;;;3.97;2.90;;;;;;;;;;5068017;28;20453;-49
2021/12/03 09:33:28;;;;;;;2.80;2.23;;;;;;;;;;5032185;28;20438;-48
2021/12/03 09:36:02;;;;;;;3.63;2.77;;;;;;;;;;5059606;28;20511;-47
2021/12/03 09:38:43;;;;;;;2.80;2.50;;;;;;;;;;5051058;28;21093;-48
2021/12/03 09:41:12;;;;;;;3.10;1.97;;;;;;;;;;5062263;28;20429;-47
2021/12/03 09:43:43;;;;;;;2.07;1.87;;;;;;;;;;5057756;28;20647;-49
2021/12/03 09:46:22;;;;;;;4.13;2.07;;;;;;;;;;5079656;28;20506;-48
2021/12/03 09:51:30;;;;;;;6.47;2.97;;;;;;;;;;5066795;28;21613;-49
2021/12/03 09:54:20;;;;;;;7.43;3.30;;;;;;;;;;5044762;28;20449;-49
2021/12/03 09:56:46;;;;;;;5.03;2.53;;;;;;;;;;5061326;28;20456;-47
2021/12/03 10:13:29;;;;;;;9.10;3.97;;;;;;;;;;5051530;28;20887;-48
2021/12/03 10:29:45;;;;;;;3.57;2.83;;;;;;;;;;5038235;28;20539;-49
2021/12/03 10:40:41;;;;;;;6.90;3.50;;;;;;;;;;5028294;28;20464;-49
2021/12/03 10:43:25;;;;;;;3.30;3.00;;;;;;;;;;5059267;28;20981;-48
2021/12/03 10:51:53;;;;;;;4.90;3.57;;;;;;;;;;5046431;28;20448;-54
2021/12/03 11:03:14;;;;;;;3.37;3.07;;;;;;;;;;5063570;28;20456;-48
2021/12/03 11:19:43;;;;;;;4.30;3.20;;;;;;;;;;5046421;28;20543;-48
2021/12/03 11:34:02;;;;;;;4.87;3.67;;;;;;;;;;5054934;28;20524;-48
2021/12/03 11:47:57;;;;;;;6.13;2.77;;;;;;;;;;5057581;28;20449;-49
2021/12/03 12:05:16;;;;;;;4.37;3.23;;;;;;;;;;5042036;28;20480;-50
2021/12/03 12:16:53;;;;;;;3.53;2.67;;;;;;;;;;5066700;28;20438;-47
2021/12/03 12:19:51;;;;;;;3.23;2.73;;;;;;;;;;5016507;28;20588;-48
2021/12/03 12:23:29;;;;;;;3.30;2.47;;;;;;;;;;5064477;28;20744;-47
2021/12/03 12:25:14;;;;;;;5.60;2.13;;;;;;;;;;5047037;28;20441;-47
2021/12/03 12:55:43;;;;;;;2.40;2.20;;;;;;;;;;5066558;28;20418;-48
2021/12/03 13:09:08;;;;;;;1.63;1.53;;;;;;;;;;5045067;28;20475;-48
2021/12/03 14:18:55;;;;;;;2.40;1.57;;;;;;;;;;5064551;28;20528;-49
2021/12/03 14:49:50;;;;;;;2.10;1.90;;;;;;;;;;5035352;28;20610;-48
2021/12/03 14:54:53;;;;;;;2.43;2.20;;;;;;;;;;5056854;28;20445;-47
2021/12/03 14:57:36;;;;;;;2.70;2.20;;;;;;;;;;5060801;28;20414;-46
2021/12/03 15:00:30;;;;;;;4.10;2.03;;;;;;;;;;5054059;28;20473;-47
2021/12/03 15:06:19;;;;;;;2.43;2.07;;;;;;;;;;5049235;28;20441;-49
2021/12/03 15:11:47;;;;;;;3.10;1.80;;;;;;;;;;5062569;28;20633;-48
2021/12/03 15:35:53;;;;;;;2.53;2.30;;;;;;;;;;5058407;28;20458;-49
2021/12/03 15:52:24;;;;;;;4.30;2.90;;;;;;;;;;5058862;28;20455;-49
2021/12/03 16:05:54;;;;;;;2.70;1.63;;;;;;;;;;5062695;28;20436;-48
2021/12/03 16:08:46;;;;;;;7.00;2.73;;;;;;;;;;5045421;28;20433;-50
2021/12/03 16:17:07;;;;;;;2.53;2.33;;;;;;;;;;5063611;28;20544;-48
2021/12/03 16:19:55;;;;;;;5.57;2.67;;;;;;;;;;5049244;28;20465;-47
2021/12/03 16:22:33;;;;;;;3.07;1.90;;;;;;;;;;5061523;28;20904;-48
2021/12/03 16:52:01;;;;;;;4.20;2.67;;;;;;;;;;5024614;28;20445;-48
2021/12/03 16:54:33;;;;;;;4.93;2.70;;;;;;;;;;5043643;28;22414;-48
2021/12/03 16:56:59;;;;;;;5.43;3.47;;;;;;;;;;5062692;28;20547;-48
2021/12/03 16:59:25;;;;;;;3.80;3.43;;;;;;;;;;5045381;28;20512;-52
2021/12/03 17:07:49;;;;;;;5.07;2.70;;;;;;;;;;5066963;28;20460;-48
2021/12/03 17:26:28;;;;;;;6.67;3.33;;;;;;;;;;5067072;28;20510;-47
2021/12/03 17:47:51;;;;;;;5.87;4.63;;;;;;;;;;5036374;28;20457;-47
2021/12/03 17:58:41;;;;;;;3.17;2.87;;;;;;;;;;5051494;28;20530;-46
2021/12/03 18:00:57;;;;;;;4.50;2.73;;;;;;;;;;5059888;28;20503;-46
2021/12/03 18:03:50;;;;;;;3.80;3.10;;;;;;;;;;5056225;28;20759;-48
2021/12/03 18:07:04;;;;;;;3.00;2.40;;;;;;;;;;5068486;28;20434;-48
2021/12/03 18:43:38;;;;;;;3.17;2.50;;;;;;;;;;5049245;28;20460;-49
2021/12/03 18:51:41;;;;;;;5.63;3.50;;;;;;;;;;5060410;28;20430;-47
2021/12/03 18:56:55;;;;;;;5.53;3.30;;;;;;;;;;5051579;28;20492;-48
2021/12/03 18:59:24;;;;;;;6.10;3.27;;;;;;;;;;5058372;28;20516;-47
2021/12/03 19:01:52;;;;;;;4.80;2.80;;;;;;;;;;5039819;28;20453;-48
2021/12/03 19:07:40;;;;;;;4.40;3.60;;;;;;;;;;5055535;28;20433;-49
2021/12/03 19:10:12;;;;;;;3.57;3.13;;;;;;;;;;5056061;28;20432;-45
2021/12/03 19:12:41;;;;;;;4.10;3.33;;;;;;;;;;5030593;28;20449;-45
2021/12/03 19:15:09;;;;;;;4.83;3.33;;;;;;;;;;5054265;28;20569;-49
2021/12/03 19:17:40;;;;;;;4.37;3.13;;;;;;;;;;5055751;28;20448;-48
2021/12/03 19:20:10;;;;;;;4.53;3.37;;;;;;;;;;5075925;28;20473;-46
2021/12/03 19:22:54;;;;;;;5.00;3.97;;;;;;;;;;5043667;28;20422;-48
2021/12/03 19:25:22;;;;;;;3.77;3.37;;;;;;;;;;5057981;28;20972;-45
2021/12/03 19:27:48;;;;;;;4.97;3.57;;;;;;;;;;5054540;28;20525;-46
2021/12/03 19:30:15;;;;;;;4.60;2.60;;;;;;;;;;5057673;28;20434;-46
2021/12/03 19:32:58;;;;;;;5.10;3.37;;;;;;;;;;5053566;28;20767;-48
2021/12/03 19:35:39;;;;;;;6.20;4.00;;;;;;;;;;5063233;28;20457;-47
2021/12/03 19:38:09;;;;;;;6.60;3.90;;;;;;;;;;5048947;28;20438;-48
2021/12/03 19:40:39;;;;;;;5.43;3.83;;;;;;;;;;5056434;28;20430;-49
2021/12/03 19:43:11;;;;;;;3.93;3.20;;;;;;;;;;5040902;28;20483;-46
2021/12/03 19:45:52;;;;;;;4.00;3.10;;;;;;;;;;5061210;28;20463;-48
2021/12/03 19:48:18;;;;;;;6.20;3.90;;;;;;;;;;5049756;28;20489;-47
2021/12/03 19:50:45;;;;;;;6.13;3.30;;;;;;;;;;5056876;28;20447;-47
2021/12/03 19:53:20;;;;;;;7.23;3.97;;;;;;;;;;5074817;28;20445;-47
2021/12/03 19:55:47;;;;;;;5.50;3.23;;;;;;;;;;5054195;28;20437;-47
2021/12/03 19:58:14;;;;;;;5.53;3.50;;;;;;;;;;5054600;28;20434;-47
2021/12/03 20:00:42;;;;;;;4.43;3.60;;;;;;;;;;5042533;28;20995;-48
2021/12/03 20:03:10;;;;;;;4.70;3.77;;;;;;;;;;5047624;28;20467;-48
2021/12/03 20:05:36;;;;;;;3.90;2.97;;;;;;;;;;5059985;28;20457;-48
2021/12/03 20:08:04;;;;;;;6.70;4.20;;;;;;;;;;5058539;28;20537;-48
2021/12/03 20:10:35;;;;;;;6.80;3.53;;;;;;;;;;5078176;28;23313;-48
2021/12/03 20:13:04;;;;;;;12.30;4.47;;;;;;;;;;5054817;28;20446;-48
2021/12/03 20:15:34;;;;;;;4.43;3.13;;;;;;;;;;5059836;28;20541;-48
2021/12/03 20:18:24;;;;;;;6.80;4.20;;;;;;;;;;5044285;28;21351;-48
2021/12/03 20:20:52;;;;;;;5.40;3.57;;;;;;;;;;5079604;28;20442;-46
2021/12/03 20:23:37;;;;;;;5.30;4.20;;;;;;;;;;5045064;28;20430;-46
2021/12/03 20:28:51;;;;;;;4.30;3.60;;;;;;;;;;5045120;28;20949;-47
2021/12/03 20:31:41;;;;;;;4.40;2.73;;;;;;;;;;5062930;28;20462;-47
2021/12/03 20:39:34;;;;;;;5.50;3.40;;;;;;;;;;5068228;28;20496;-47
2021/12/03 20:42:09;;;;;;;5.10;4.07;;;;;;;;;;5050722;28;20495;-46
2021/12/03 20:49:58;;;;;;;4.70;3.70;;;;;;;;;;5062339;28;20418;-45
2021/12/03 20:58:30;;;;;;;5.83;4.07;;;;;;;;;;5058499;28;20508;-47
2021/12/03 21:08:59;;;;;;;5.47;3.10;;;;;;;;;;5064536;28;20480;-46
2021/12/03 21:11:33;;;;;;;4.20;3.10;;;;;;;;;;5063459;28;20495;-48
2021/12/03 21:14:04;;;;;;;3.37;2.50;;;;;;;;;;5044546;28;20476;-47
2021/12/03 21:17:39;;;;;;;4.10;2.73;;;;;;;;;;5060511;28;20439;-48
2021/12/03 21:19:36;;;;;;;4.60;3.60;;;;;;;;;;5049320;28;20932;-45
2021/12/03 21:22:14;;;;;;;3.93;3.33;;;;;;;;;;5062255;28;20440;-47
2021/12/03 21:24:42;;;;;;;4.67;3.40;;;;;;;;;;5067495;28;20444;-44
2021/12/03 21:27:11;;;;;;;5.07;3.13;;;;;;;;;;5040850;28;23596;-45
2021/12/03 21:29:51;;;;;;;3.90;2.63;;;;;;;;;;5064968;28;20439;-45
2021/12/03 21:32:45;;;;;;;4.37;3.97;;;;;;;;;;5064663;28;20428;-48
2021/12/03 21:43:16;;;;;;;4.13;3.50;;;;;;;;;;5047180;28;20488;-46
2021/12/03 21:45:42;;;;;;;3.53;3.23;;;;;;;;;;5064439;28;20548;-45
2021/12/03 21:48:09;;;;;;;3.40;3.10;;;;;;;;;;5055456;28;20426;-45
2021/12/03 21:50:35;;;;;;;4.30;3.00;;;;;;;;;;5064232;28;20448;-45
2021/12/03 21:53:02;;;;;;;4.90;3.30;;;;;;;;;;5063826;28;20430;-46
2021/12/03 21:55:28;;;;;;;3.53;3.23;;;;;;;;;;5063913;28;20437;-45
2021/12/03 21:57:54;;;;;;;9.53;3.27;;;;;;;;;;5058880;28;20818;-45
2021/12/03 22:00:22;;;;;;;3.07;2.30;;;;;;;;;;5058190;28;20595;-48
2021/12/03 22:02:48;;;;;;;4.70;3.50;;;;;;;;;;5079691;28;20483;-48
2021/12/03 22:05:14;;;;;;;4.57;3.77;;;;;;;;;;5061546;28;20508;-45
2021/12/03 22:07:40;;;;;;;2.87;2.50;;;;;;;;;;5052423;28;20457;-47
2021/12/03 22:10:06;;;;;;;3.37;2.20;;;;;;;;;;5059583;28;20431;-45
2021/12/03 22:12:57;;;;;;;5.20;3.30;;;;;;;;;;5060333;28;20862;-48
2021/12/03 22:15:33;;;;;;;3.20;2.13;;;;;;;;;;5056238;28;20472;-45
2021/12/03 22:17:59;;;;;;;3.60;2.97;;;;;;;;;;5054036;28;20472;-45
2021/12/03 22:20:25;;;;;;;4.33;2.80;;;;;;;;;;5060322;28;20485;-46
2021/12/03 22:23:00;;;;;;;2.63;2.43;;;;;;;;;;5066496;28;20821;-49
2021/12/03 22:25:26;;;;;;;3.40;2.23;;;;;;;;;;5062835;28;20495;-46
2021/12/03 22:28:17;;;;;;;5.23;2.50;;;;;;;;;;5057781;28;20436;-48
2021/12/03 22:30:43;;;;;;;2.67;2.30;;;;;;;;;;5060002;28;20426;-46
2021/12/03 22:33:20;;;;;;;3.00;2.20;;;;;;;;;;5049720;28;20451;-49
2021/12/03 22:35:46;;;;;;;2.97;2.37;;;;;;;;;;5060947;28;20449;-48
2021/12/03 22:38:25;;;;;;;3.37;2.60;;;;;;;;;;5036334;28;20512;-48
2021/12/03 22:40:54;;;;;;;3.50;2.93;;;;;;;;;;5056515;28;22971;-48
2021/12/03 22:43:21;;;;;;;3.10;2.80;;;;;;;;;;5055786;28;20580;-48
2021/12/03 22:51:00;;;;;;;3.03;2.20;;;;;;;;;;5063139;28;20437;-47
2021/12/03 22:53:26;;;;;;;3.37;2.10;;;;;;;;;;5039471;28;20441;-49
2021/12/03 22:55:52;;;;;;;6.83;2.93;;;;;;;;;;5042529;28;20583;-47
2021/12/03 22:58:18;;;;;;;4.10;2.50;;;;;;;;;;5060072;28;20437;-48